createdAt,value
2024-01-11T00:02:24.514Z,-5
2024-01-11T00:04:50.635Z,-5
2024-01-11T00:07:16.699Z,-5
2024-01-11T00:09:42.814Z,-4.9
2024-01-11T00:12:08.911Z,-4.9
2024-01-11T00:14:34.022Z,-5
2024-01-11T00:17:00.117Z,-5
2024-01-11T00:19:26.215Z,-5
2024-01-11T00:21:52.342Z,-5.1
2024-01-11T00:24:18.413Z,-5.1
2024-01-11T00:26:44.535Z,-5.1
2024-01-11T00:29:10.609Z,-5.1
2024-01-11T00:31:36.761Z,-5.1
2024-01-11T00:34:02.852Z,-5.2
2024-01-11T00:36:28.902Z,-5.2
2024-01-11T00:38:54.977Z,-5.1
2024-01-11T00:41:21.106Z,-5.1
2024-01-11T00:43:47.186Z,-5.1
2024-01-11T00:46:12.322Z,-5.1
2024-01-11T00:48:38.396Z,-5.1
2024-01-11T00:51:04.507Z,-5.1
2024-01-11T00:53:30.603Z,-5.1
2024-01-11T00:55:56.705Z,-5.2
2024-01-11T00:58:22.799Z,-5.2
2024-01-11T01:00:48.894Z,-5.2
2024-01-11T01:03:15.009Z,-5.1
2024-01-11T01:05:41.126Z,-5.1
2024-01-11T01:08:07.207Z,-5.2
2024-01-11T01:10:33.294Z,-5.1
2024-01-11T01:12:59.397Z,-5.2
2024-01-11T01:15:25.495Z,-5.2
2024-01-11T01:17:50.617Z,-5.2
2024-01-11T01:20:16.703Z,-5.2
2024-01-11T01:22:42.794Z,-5.2
2024-01-11T01:25:08.890Z,-5.2
2024-01-11T01:27:34.994Z,-5.3
2024-01-11T01:30:01.106Z,-5.3
2024-01-11T01:32:27.182Z,-5.3
2024-01-11T01:34:53.340Z,-5.3
2024-01-11T01:37:19.375Z,-5.3
2024-01-11T01:39:45.493Z,-5.3
2024-01-11T01:42:11.559Z,-5.3
2024-01-11T01:44:37.669Z,-5.3
2024-01-11T01:49:29.854Z,-5.3
2024-01-11T01:51:54.976Z,-5.2
2024-01-11T01:54:21.096Z,-5.2
2024-01-11T01:56:47.174Z,-5.2
2024-01-11T01:59:13.281Z,-5.3
2024-01-11T02:01:39.376Z,-5.3
2024-01-11T02:04:05.468Z,-5.3
2024-01-11T02:06:31.563Z,-5.3
2024-01-11T02:08:57.669Z,-5.4
2024-01-11T02:11:23.774Z,-5.4
2024-01-11T02:13:49.890Z,-5.4
2024-01-11T02:16:15.965Z,-5.4
2024-01-11T02:18:42.074Z,-5.4
2024-01-11T02:21:08.187Z,-5.3
2024-01-11T02:23:33.275Z,-5.3
2024-01-11T02:25:59.391Z,-5.4
2024-01-11T02:28:25.491Z,-5.4
2024-01-11T02:30:51.579Z,-5.4
2024-01-11T02:33:17.675Z,-5.4
2024-01-11T02:35:44.055Z,-5.4
2024-01-11T02:38:09.867Z,-5.5
2024-01-11T02:40:35.976Z,-5.5
2024-01-11T02:43:02.084Z,-5.5
2024-01-11T02:45:28.159Z,-5.6
2024-01-11T02:47:54.260Z,-5.6
2024-01-11T02:50:20.366Z,-5.6
2024-01-11T02:52:46.449Z,-5.6
2024-01-11T02:55:11.596Z,-5.6
2024-01-11T02:57:37.717Z,-5.6
2024-01-11T03:00:03.765Z,-5.7
2024-01-11T03:02:29.871Z,-5.7
2024-01-11T03:04:55.960Z,-5.7
2024-01-11T03:07:22.062Z,-5.7
2024-01-11T03:09:48.167Z,-5.7
2024-01-11T03:12:14.254Z,-5.8
2024-01-11T03:14:40.359Z,-5.8
2024-01-11T03:17:06.450Z,-5.8
2024-01-11T03:19:32.567Z,-5.8
2024-01-11T03:21:58.668Z,-5.8
2024-01-11T03:24:24.739Z,-5.8
2024-01-11T03:26:49.864Z,-5.8
2024-01-11T03:29:15.969Z,-5.8
2024-01-11T03:31:42.073Z,-5.8
2024-01-11T03:34:08.158Z,-5.8
2024-01-11T03:36:34.242Z,-5.8
2024-01-11T03:39:00.357Z,-5.9
2024-01-11T03:41:26.446Z,-5.9
2024-01-11T03:43:52.535Z,-5.9
2024-01-11T03:46:18.637Z,-6
2024-01-11T03:48:44.729Z,-6
2024-01-11T03:51:10.833Z,-6
2024-01-11T03:53:36.959Z,-6
2024-01-11T03:56:03.035Z,-5.9
2024-01-11T03:58:28.152Z,-5.9
2024-01-11T04:00:54.274Z,-5.9
2024-01-11T04:03:20.342Z,-5.9
2024-01-11T04:05:46.465Z,-6
2024-01-11T04:08:12.548Z,-6
2024-01-11T04:10:38.626Z,-6
2024-01-11T04:13:04.737Z,-6
2024-01-11T04:15:30.886Z,-6
2024-01-11T04:17:56.938Z,-6
2024-01-11T04:20:23.044Z,-6
2024-01-11T04:22:49.118Z,-6.1
2024-01-11T04:25:15.235Z,-6.1
2024-01-11T04:27:41.368Z,-6.1
2024-01-11T04:30:06.438Z,-6.1
2024-01-11T04:32:31.567Z,-6.1
2024-01-11T04:34:57.658Z,-6
2024-01-11T04:37:23.755Z,-6
2024-01-11T04:39:49.864Z,-5.9
2024-01-11T04:42:15.977Z,-5.9
2024-01-11T04:44:42.043Z,-5.9
2024-01-11T04:47:08.161Z,-6
2024-01-11T04:49:34.258Z,-6
2024-01-11T04:52:00.348Z,-6
2024-01-11T04:54:26.448Z,-6
2024-01-11T04:56:52.575Z,-6
2024-01-11T04:59:18.638Z,-6.1
2024-01-11T05:01:44.740Z,-6.1
2024-01-11T05:04:09.848Z,-6.1
2024-01-11T05:06:35.934Z,-6.1
2024-01-11T05:09:02.047Z,-6.1
2024-01-11T05:11:28.135Z,-6.2
2024-01-11T05:13:54.315Z,-6.1
2024-01-11T05:16:20.350Z,-6.1
2024-01-11T05:18:46.437Z,-6.1
2024-01-11T05:21:12.651Z,-6.1
2024-01-11T05:23:38.632Z,-6.2
2024-01-11T05:26:04.735Z,-6.2
2024-01-11T05:28:30.842Z,-6.2
2024-01-11T05:30:56.943Z,-6.2
2024-01-11T05:33:23.028Z,-6.2
2024-01-11T05:35:48.147Z,-6.1
2024-01-11T05:38:14.256Z,-6.1
2024-01-11T05:40:40.344Z,-6.1
2024-01-11T05:43:06.438Z,-6.1
2024-01-11T05:45:32.560Z,-6
2024-01-11T05:47:58.642Z,-6.1
2024-01-11T05:50:24.733Z,-6.1
2024-01-11T05:52:50.871Z,-6.1
2024-01-11T05:55:16.937Z,-6.1
2024-01-11T06:00:09.136Z,-6.2
2024-01-11T06:02:35.231Z,-6.2
2024-01-11T06:05:01.328Z,-6.1
2024-01-11T06:07:26.451Z,-6.1
2024-01-11T06:09:52.570Z,-6.1
2024-01-11T06:12:18.644Z,-6
2024-01-11T06:14:44.753Z,-6.1
2024-01-11T06:17:10.847Z,-6.1
2024-01-11T06:19:36.937Z,-6.1
2024-01-11T06:22:03.053Z,-6.1
2024-01-11T06:24:29.143Z,-6.1
2024-01-11T06:26:55.288Z,-6.1
2024-01-11T06:29:21.330Z,-6.2
2024-01-11T06:31:47.448Z,-6.2
2024-01-11T06:34:13.518Z,-6.2
2024-01-11T06:36:39.620Z,-6.3
2024-01-11T06:39:04.779Z,-6.3
2024-01-11T06:41:30.830Z,-6.3
2024-01-11T06:43:56.940Z,-6.3
2024-01-11T06:46:23.035Z,-6.3
2024-01-11T06:48:49.123Z,-6.3
2024-01-11T06:51:15.225Z,-6.3
2024-01-11T06:53:41.327Z,-6.3
2024-01-11T06:56:07.443Z,-6.3
2024-01-11T06:58:33.565Z,-6.3
2024-01-11T07:00:59.614Z,-6.4
2024-01-11T07:03:25.722Z,-6.4
2024-01-11T07:05:51.816Z,-6.3
2024-01-11T07:08:17.912Z,-6.3
2024-01-11T07:10:43.125Z,-6.3
2024-01-11T07:13:09.128Z,-6.3
2024-01-11T07:15:35.302Z,-6.3
2024-01-11T07:18:01.320Z,-6.2
2024-01-11T07:20:27.506Z,-6.2
2024-01-11T07:22:53.548Z,-6.2
2024-01-11T07:25:19.624Z,-6.2
2024-01-11T07:27:45.714Z,-6
2024-01-11T07:30:11.806Z,-6
2024-01-11T07:32:37.928Z,-6
2024-01-11T07:35:04.030Z,-6.1
2024-01-11T07:37:30.134Z,-6.1
2024-01-11T07:39:56.224Z,-6.1
2024-01-11T07:42:21.334Z,-6
2024-01-11T07:44:47.470Z,-6
2024-01-11T07:47:13.526Z,-6
2024-01-11T07:49:39.801Z,-6
2024-01-11T07:52:06.047Z,-5.9
2024-01-11T07:54:32.060Z,-5.9
2024-01-11T07:56:58.116Z,-5.9
2024-01-11T07:59:24.370Z,-5.8
2024-01-11T08:01:50.384Z,-5.8
2024-01-11T08:04:16.540Z,-5.7
2024-01-11T08:06:42.590Z,-5.7
2024-01-11T08:09:08.658Z,-5.6
2024-01-11T08:11:34.756Z,-5.5
2024-01-11T08:13:59.629Z,-5.5
2024-01-11T08:16:25.986Z,-5.5
2024-01-11T08:18:51.900Z,-5.4
2024-01-11T08:21:17.901Z,-5.3
2024-01-11T08:23:44.237Z,-5.2
2024-01-11T08:26:10.372Z,-5.2
2024-01-11T08:28:36.446Z,-5.1
2024-01-11T08:31:02.609Z,-5.1
2024-01-11T08:33:28.416Z,-5
2024-01-11T08:35:54.685Z,-5
2024-01-11T08:38:20.963Z,-4.9
2024-01-11T08:40:47.043Z,-4.9
2024-01-11T08:43:13.117Z,-4.8
2024-01-11T08:45:38.016Z,-4.8
2024-01-11T08:48:04.324Z,-4.8
2024-01-11T08:50:30.286Z,-4.7
2024-01-11T08:52:56.471Z,-4.7
2024-01-11T08:55:22.623Z,-4.6
2024-01-11T08:57:48.696Z,-4.6
2024-01-11T09:00:14.782Z,-4.5
2024-01-11T09:02:40.595Z,-4.5
2024-01-11T09:05:07.044Z,-4.4
2024-01-11T09:07:33.151Z,-4.3
2024-01-11T09:09:59.115Z,-4.3
2024-01-11T09:12:25.212Z,-4.2
2024-01-11T09:14:51.451Z,-4.1
2024-01-11T09:17:16.492Z,-4
2024-01-11T09:19:42.507Z,-3.9
2024-01-11T09:22:08.399Z,-3.9
2024-01-11T09:24:34.739Z,-3.8
2024-01-11T09:27:00.803Z,-3.7
2024-01-11T09:29:26.829Z,-3.7
2024-01-11T09:31:52.807Z,-3.6
2024-01-11T09:34:18.966Z,-3.6
2024-01-11T09:36:45.241Z,-3.6
2024-01-11T09:39:11.169Z,-3.5
2024-01-11T09:41:37.238Z,-3.5
2024-01-11T09:44:03.277Z,-3.4
2024-01-11T09:46:29.652Z,-3.3
2024-01-11T09:48:54.525Z,-3.3
2024-01-11T09:51:20.649Z,-3.2
2024-01-11T09:53:47.047Z,-3.2
2024-01-11T09:56:12.980Z,-3.1
2024-01-11T09:58:39.149Z,-3
2024-01-11T10:01:05.133Z,-2.9
2024-01-11T10:03:31.283Z,-2.8
2024-01-11T10:05:57.605Z,-2.8
2024-01-11T10:08:23.535Z,-2.7
2024-01-11T10:10:49.659Z,-2.7
2024-01-11T10:13:15.730Z,-2.6
2024-01-11T10:15:41.692Z,-2.6
2024-01-11T10:18:07.979Z,-2.5
2024-01-11T10:20:33.032Z,-2.5
2024-01-11T10:22:58.925Z,-2.4
2024-01-11T10:25:24.997Z,-2.3
2024-01-11T10:27:51.074Z,-2.2
2024-01-11T10:30:17.460Z,-2.2
2024-01-11T10:32:43.440Z,-2.1
2024-01-11T10:35:09.412Z,-2
2024-01-11T10:37:35.607Z,-1.9
2024-01-11T10:40:01.626Z,-1.8
2024-01-11T10:42:27.938Z,-1.7
2024-01-11T10:44:53.999Z,-1.7
2024-01-11T10:47:20.014Z,-1.6
2024-01-11T10:49:46.148Z,-1.5
2024-01-11T10:52:11.372Z,-1.5
2024-01-11T10:54:37.467Z,-1.4
2024-01-11T10:57:03.256Z,-1.3
2024-01-11T10:59:29.535Z,-1.2
2024-01-11T11:01:55.657Z,-1.2
2024-01-11T11:04:21.772Z,-1.2
2024-01-11T11:06:47.985Z,-1.1
2024-01-11T11:09:14.050Z,-1.1
2024-01-11T11:11:40.014Z,-1
2024-01-11T11:14:05.943Z,-1
2024-01-11T11:16:32.332Z,-0.9
2024-01-11T11:18:58.331Z,-0.9
2024-01-11T11:21:24.544Z,-0.9
2024-01-11T11:23:49.699Z,-0.8
2024-01-11T11:26:15.540Z,-0.7
2024-01-11T11:28:41.705Z,-0.6
2024-01-11T11:31:07.867Z,-0.5
2024-01-11T11:33:34.036Z,-0.5
2024-01-11T11:35:59.952Z,-0.4
2024-01-11T11:38:26.200Z,-0.4
2024-01-11T11:40:52.173Z,-0.5
2024-01-11T11:43:18.336Z,-0.5
2024-01-11T11:45:44.501Z,-0.4
2024-01-11T11:48:10.636Z,-0.4
2024-01-11T11:50:36.707Z,-0.4
2024-01-11T11:53:02.543Z,-0.4
2024-01-11T11:55:27.726Z,-0.3
2024-01-11T11:57:54.014Z,-0.3
2024-01-11T12:00:20.128Z,-0.3
2024-01-11T12:02:46.240Z,-0.2
2024-01-11T12:05:12.023Z,-0.2
2024-01-11T12:10:04.454Z,-0.1
2024-01-11T12:12:30.722Z,-0.1
2024-01-11T12:14:56.684Z,0
2024-01-11T12:17:22.746Z,0.1
2024-01-11T12:19:48.596Z,0.2
2024-01-11T12:22:14.984Z,0.3
2024-01-11T12:24:40.971Z,0.5
2024-01-11T12:27:06.012Z,0.7
2024-01-11T12:29:32.347Z,0.7
2024-01-11T12:31:58.385Z,0.8
2024-01-11T12:34:24.349Z,0.8
2024-01-11T12:36:50.557Z,0.8
2024-01-11T12:39:16.782Z,0.8
2024-01-11T12:41:41.811Z,0.7
2024-01-11T12:44:07.750Z,0.8
2024-01-11T12:46:33.756Z,0.8
2024-01-11T12:49:00.054Z,0.8
2024-01-11T12:51:25.952Z,0.8
2024-01-11T12:53:52.357Z,0.8
2024-01-11T12:56:18.350Z,0.9
2024-01-11T12:58:44.438Z,0.9
2024-01-11T13:01:10.580Z,1
2024-01-11T13:03:36.457Z,1
2024-01-11T13:06:02.473Z,1
2024-01-11T13:08:28.894Z,1.1
2024-01-11T13:10:54.817Z,1.1
2024-01-11T13:13:20.113Z,1.2
2024-01-11T13:15:46.226Z,1.2
2024-01-11T13:18:12.339Z,1.2
2024-01-11T13:20:38.449Z,1.2
2024-01-11T13:23:04.485Z,1.2
2024-01-11T13:25:30.584Z,1.2
2024-01-11T13:27:56.679Z,1.2
2024-01-11T13:30:22.545Z,1.2
2024-01-11T13:32:48.883Z,1.3
2024-01-11T13:35:14.963Z,1.4
2024-01-11T13:37:40.993Z,1.4
2024-01-11T13:40:07.272Z,1.5
2024-01-11T13:42:33.301Z,1.5
2024-01-11T13:44:58.362Z,1.4
2024-01-11T13:47:24.160Z,1.4
2024-01-11T13:49:50.525Z,1.3
2024-01-11T13:52:16.531Z,1.4
2024-01-11T13:54:42.465Z,1.4
2024-01-11T13:57:08.853Z,1.4
2024-01-11T13:59:34.787Z,1.3
2024-01-11T14:02:00.782Z,1.3
2024-01-11T14:04:27.180Z,1.2
2024-01-11T14:06:53.100Z,1.2
2024-01-11T14:09:19.147Z,1.3
2024-01-11T14:11:45.357Z,1.3
2024-01-11T14:14:11.518Z,1.3
2024-01-11T14:16:36.655Z,1.3
2024-01-11T14:19:02.705Z,1.3
2024-01-11T14:21:28.655Z,1.3
2024-01-11T14:23:54.871Z,1.3
2024-01-11T14:26:21.006Z,1.3
2024-01-11T14:28:47.077Z,1.2
2024-01-11T14:31:13.163Z,1.1
2024-01-11T14:33:39.300Z,1
2024-01-11T14:36:05.167Z,1
2024-01-11T14:38:31.287Z,0.8
2024-01-11T14:40:57.383Z,0.6
2024-01-11T14:43:23.813Z,0.4
2024-01-11T14:45:49.793Z,0.3
2024-01-11T14:48:14.916Z,0.2
2024-01-11T14:50:40.718Z,0
2024-01-11T14:53:06.979Z,-0.1
2024-01-11T14:55:33.197Z,-0.2
2024-01-11T14:57:59.057Z,-0.3
2024-01-11T15:00:25.357Z,-0.4
2024-01-11T15:02:51.582Z,-0.4
2024-01-11T15:05:17.579Z,-0.5
2024-01-11T15:07:43.670Z,-0.5
2024-01-11T15:10:09.480Z,-0.6
2024-01-11T15:12:35.801Z,-0.6
2024-01-11T15:15:01.682Z,-0.5
2024-01-11T15:17:27.849Z,-0.6
2024-01-11T15:19:53.223Z,-0.5
2024-01-11T15:22:19.249Z,-0.3
2024-01-11T15:24:45.360Z,-0.4
2024-01-11T15:27:11.492Z,-0.5
2024-01-11T15:29:37.602Z,-0.5
2024-01-11T15:32:03.437Z,-0.5
2024-01-11T15:34:29.684Z,-0.4
2024-01-11T15:36:55.901Z,-0.5
2024-01-11T15:39:21.856Z,-0.7
2024-01-11T15:41:47.924Z,-0.8
2024-01-11T15:44:14.154Z,-1
2024-01-11T15:46:40.160Z,-1.1
2024-01-11T15:51:32.239Z,-1.4
2024-01-11T15:53:57.468Z,-1.5
2024-01-11T15:56:23.801Z,-1.6
2024-01-11T15:58:49.792Z,-1.8
2024-01-11T16:01:15.852Z,-1.9
2024-01-11T16:03:41.872Z,-2
2024-01-11T16:06:07.840Z,-2.1
2024-01-11T16:08:34.158Z,-2.2
2024-01-11T16:11:00.101Z,-2.2
2024-01-11T16:13:26.256Z,-2.3
2024-01-11T16:15:52.311Z,-2.4
2024-01-11T16:18:18.223Z,-2.5
2024-01-11T16:20:44.656Z,-2.5
2024-01-11T16:23:10.696Z,-2.5
2024-01-11T16:25:35.903Z,-2.5
2024-01-11T16:28:01.947Z,-2.6
2024-01-11T16:30:27.964Z,-2.7
2024-01-11T16:32:54.194Z,-2.7
2024-01-11T16:35:20.234Z,-2.8
2024-01-11T16:37:46.289Z,-2.9
2024-01-11T16:40:12.406Z,-2.9
2024-01-11T16:42:38.521Z,-2.9
2024-01-11T16:45:04.361Z,-3
2024-01-11T16:47:30.424Z,-3
2024-01-11T16:49:56.511Z,-3
2024-01-11T16:52:22.938Z,-3
2024-01-11T16:54:48.976Z,-3
2024-01-11T16:57:14.142Z,-3.1
2024-01-11T17:02:06.264Z,-3.2
2024-01-11T17:04:32.126Z,-3.2
2024-01-11T17:06:58.419Z,-3.2
2024-01-11T17:09:24.591Z,-3.2
2024-01-11T17:11:50.538Z,-3.3
2024-01-11T17:14:16.610Z,-3.3
2024-01-11T17:16:42.602Z,-3.3
2024-01-11T17:19:08.906Z,-3.4
2024-01-11T17:21:35.053Z,-3.4
2024-01-11T17:24:01.089Z,-3.4
2024-01-11T17:26:27.123Z,-3.5
2024-01-11T17:28:52.425Z,-3.5
2024-01-11T17:31:18.206Z,-3.5
2024-01-11T17:33:44.313Z,-3.5
2024-01-11T17:36:10.645Z,-3.5
2024-01-11T17:38:36.795Z,-3.6
2024-01-11T17:41:02.904Z,-3.6
2024-01-11T17:43:29.011Z,-3.6
2024-01-11T17:45:54.771Z,-3.6
2024-01-11T17:48:21.074Z,-3.6
2024-01-11T17:50:47.044Z,-3.7
2024-01-11T17:53:13.352Z,-3.5
2024-01-11T17:55:39.283Z,-3.3
2024-01-11T17:58:05.621Z,-3.3
2024-01-11T18:00:30.636Z,-3.3
2024-01-11T18:02:56.831Z,-3.3
2024-01-11T18:05:22.732Z,-3.3
2024-01-11T18:07:48.976Z,-3.4
2024-01-11T18:10:15.020Z,-3.4
2024-01-11T18:12:41.181Z,-3.5
2024-01-11T18:15:07.168Z,-3.6
2024-01-11T18:17:33.396Z,-3.7
2024-01-11T18:19:59.571Z,-3.6
2024-01-11T18:22:25.529Z,-3.7
2024-01-11T18:24:51.613Z,-3.7
2024-01-11T18:27:17.794Z,-3.6
2024-01-11T18:29:43.881Z,-3.6
2024-01-11T18:32:08.693Z,-3.7
2024-01-11T18:34:35.030Z,-3.7
2024-01-11T18:37:00.909Z,-3.8
2024-01-11T18:39:27.153Z,-3.8
2024-01-11T18:41:53.430Z,-3.9
2024-01-11T18:44:19.503Z,-3.9
2024-01-11T18:46:45.566Z,-4
2024-01-11T18:49:11.704Z,-4
2024-01-11T18:51:37.756Z,-4.1
2024-01-11T18:56:29.766Z,-4.2
2024-01-11T18:58:56.058Z,-4.2
2024-01-11T19:01:22.193Z,-4.3
2024-01-11T19:03:47.048Z,-4.3
2024-01-11T19:06:13.083Z,-4.2
2024-01-11T19:08:39.168Z,-4.1
2024-01-11T19:11:05.581Z,-4.1
2024-01-11T19:13:31.709Z,-4.2
2024-01-11T19:15:57.846Z,-4.2
2024-01-11T19:18:23.739Z,-4.2
2024-01-11T19:20:49.904Z,-4.2
2024-01-11T19:23:16.206Z,-4.3
2024-01-11T19:25:42.178Z,-4.3
2024-01-11T19:28:08.109Z,-4.2
2024-01-11T19:30:34.474Z,-4.2
2024-01-11T19:33:00.487Z,-4.3
2024-01-11T19:35:25.457Z,-4.3
2024-01-11T19:37:51.655Z,-4.3
2024-01-11T19:40:17.863Z,-4.3
2024-01-11T19:42:43.888Z,-4.4
2024-01-11T19:45:09.861Z,-4.4
2024-01-11T19:47:35.870Z,-4.4
2024-01-11T19:50:02.185Z,-4.4
2024-01-11T19:52:28.334Z,-4.4
2024-01-11T19:54:54.263Z,-4.4
2024-01-11T19:57:20.479Z,-4.5
2024-01-11T19:59:46.361Z,-4.6
2024-01-11T20:02:12.631Z,-4.6
2024-01-11T20:04:38.927Z,-4.6
2024-01-11T20:07:04.014Z,-4.6
2024-01-11T20:09:29.728Z,-4.6
2024-01-11T20:11:56.016Z,-4.6
2024-01-11T20:14:22.076Z,-4.6
2024-01-11T20:16:48.271Z,-4.7
2024-01-11T20:19:14.225Z,-4.7
2024-01-11T20:21:40.149Z,-4.7
2024-01-11T20:24:06.603Z,-4.7
2024-01-11T20:26:32.606Z,-4.7
2024-01-11T20:28:58.749Z,-4.7
2024-01-11T20:31:24.699Z,-4.7
2024-01-11T20:33:50.597Z,-4.7
2024-01-11T20:36:17.031Z,-4.7
2024-01-11T20:38:42.079Z,-4.7
2024-01-11T20:41:08.192Z,-4.8
2024-01-11T20:43:34.345Z,-4.8
2024-01-11T20:46:00.432Z,-4.8
2024-01-11T20:48:26.210Z,-4.8
2024-01-11T20:50:51.571Z,-4.8
2024-01-11T20:53:17.755Z,-4.8
2024-01-11T20:55:43.563Z,-4.8
2024-01-11T20:58:09.951Z,-4.8
2024-01-11T21:00:36.004Z,-4.8
2024-01-11T21:03:01.825Z,-4.8
2024-01-11T21:05:28.275Z,-4.9
2024-01-11T21:07:54.240Z,-4.9
2024-01-11T21:10:20.229Z,-4.9
2024-01-11T21:12:46.602Z,-5
2024-01-11T21:15:12.387Z,-5
2024-01-11T21:17:38.529Z,-4.9
2024-01-11T21:20:04.840Z,-4.9
2024-01-11T21:22:29.922Z,-4.9
2024-01-11T21:24:56.050Z,-4.9
2024-01-11T21:27:22.173Z,-4.9
2024-01-11T21:29:48.250Z,-4.8
2024-01-11T21:32:14.029Z,-4.8
2024-01-11T21:34:40.186Z,-4.8
2024-01-11T21:37:06.298Z,-4.8
2024-01-11T21:39:32.401Z,-4.9
2024-01-11T21:41:58.442Z,-4.9
2024-01-11T21:44:24.602Z,-5
2024-01-11T21:46:50.617Z,-4.9
2024-01-11T21:49:16.855Z,-5
2024-01-11T21:51:43.120Z,-5
2024-01-11T21:54:08.300Z,-5
2024-01-11T21:56:34.243Z,-4.9
2024-01-11T21:59:00.272Z,-5
2024-01-11T22:01:26.519Z,-5
2024-01-11T22:03:52.320Z,-5
2024-01-11T22:06:18.658Z,-5
2024-01-11T22:08:44.807Z,-5
2024-01-11T22:11:10.749Z,-5
2024-01-11T22:13:36.983Z,-5
2024-01-11T22:16:02.920Z,-5.1
2024-01-11T22:18:29.195Z,-5.1
2024-01-11T22:20:55.191Z,-5.2
2024-01-11T22:23:21.205Z,-5.1
2024-01-11T22:25:46.575Z,-5.2
2024-01-11T22:28:12.593Z,-5.2
2024-01-11T22:30:38.617Z,-5.2
2024-01-11T22:33:04.635Z,-5.3
2024-01-11T22:35:30.600Z,-5.2
2024-01-11T22:37:56.956Z,-5.3
2024-01-11T22:40:23.093Z,-5.3
2024-01-11T22:42:48.914Z,-5.3
2024-01-11T22:45:15.157Z,-5.3
2024-01-11T22:47:41.099Z,-5.3
2024-01-11T22:50:07.247Z,-5.3
2024-01-11T22:52:33.593Z,-5.3
2024-01-11T22:54:59.666Z,-5.4
2024-01-11T22:57:24.599Z,-5.4
2024-01-11T22:59:50.706Z,-5.4
2024-01-11T23:02:16.714Z,-5.5
2024-01-11T23:04:42.942Z,-5.5
2024-01-11T23:07:09.114Z,-5.5
2024-01-11T23:09:34.982Z,-5.5
2024-01-11T23:12:01.101Z,-5.5
2024-01-11T23:14:27.349Z,-5.5
2024-01-11T23:16:53.527Z,-5.6
2024-01-11T23:19:19.375Z,-5.6
2024-01-11T23:21:45.769Z,-5.6
2024-01-11T23:24:11.957Z,-5.5
2024-01-11T23:26:37.874Z,-5.5
2024-01-11T23:29:03.080Z,-5.5
2024-01-11T23:31:28.982Z,-5.4
2024-01-11T23:33:55.178Z,-5.4
2024-01-11T23:36:21.246Z,-5.4
2024-01-11T23:38:47.323Z,-5.4
2024-01-11T23:41:13.295Z,-5.5
2024-01-11T23:43:39.685Z,-5.4
2024-01-11T23:46:05.551Z,-5.4
2024-01-11T23:48:31.768Z,-5.4
2024-01-11T23:50:57.675Z,-5.4
2024-01-11T23:53:23.966Z,-5.4
2024-01-11T23:55:50.152Z,-5.5
2024-01-11T23:58:16.152Z,-5.5
